Aérodrome :







RETROUVEZ-NOUS SUR...

 
LOGIN :

S'inscrire | Disclaimer

   EN    FR    IT 

 









Légende :    VFR   VFR Marginal   IFR   IFR Intensif   IFR Très Intensif
Visi : 
Plafond : 
>= 8 km
>= 3000ft
5 à 8 km
1000 à 3000 ft
1500m à 5 km
500 à 1000 ft
800 à 1500m
200 à 500 ft
< 800m
< 200 ft
Symboles :   Orages  Brouillard  Fortes neiges  Fortes précipitations  Vent > 20 kt






- Altitude de l'aérodrome : 74 ft
- Code IATA : STX


TISX - Henri E Rohlsen

DERNIER METAR :
  • 270953Z AUTO 00000KT 10SM FEW016 26/22 A2995 RMK AO2 SLP140 T02560222

METARs EXPIRÉS :
  • 270853Z AUTO 00000KT 10SM FEW019 26/23 A2995 RMK AO2 SLP140 60000 T02610228 57005
  • 270753Z AUTO 02003KT 10SM OVC065 26/22 A2995 RMK AO2 RAB23E32 SLP140 P0000 T02610222

TAF TISX
Valide du 27 à 06h jusqu'au 28 à 06h UTC


270520Z 2706/2806 09007KT P6SM VCSH FEW025 SCT040
FM270700 05004KT P6SM FEW025 SCT040
FM271400 14009KT P6SM VCSH SCT030 SCT050
FM271800 12012KT P6SM SHRA SCT030 SCT050
FIR TJZS / Amérique du Nord



MET'MAP, la Météo Aéronautique d'un coup d'oeil ! - Copyright ORBIFLY Décembre 2007 - Disclaimer

ORBIFLY MET'MAP TEAM :

Programmation & Développement : Alexandra Zaïnal
Sur une idée originale de : Baudouin d'Aumeries
Assistance à la programmation : Marc-Olivier Méhu
Soutien technique & logistique : Manuel Goepfert

Contact : metmap@orbifly.com




SOURCES & CREDITS :

   NOAA